MDT,Max TemperatureF,Mean TemperatureF,Min TemperatureF,Max Dew PointF,MeanDew PointF,Min DewpointF,Max Humidity, Mean Humidity, Min Humidity, Max Sea Level PressureIn, Mean Sea Level PressureIn, Min Sea Level PressureIn, Max VisibilityMiles, Mean VisibilityMiles, Min VisibilityMiles, Max Wind SpeedMPH, Mean Wind SpeedMPH, Max Gust SpeedMPH,PrecipitationIn, CloudCover, Events, WindDirDegrees
2012-10-1,73,54,35,36,30,25,65,41,19,30.39,30.31,30.25,10,10,10,16,5,23,0.00,1,,27
2012-10-2,73,55,37,36,30,23,70,42,20,30.30,30.21,30.11,10,10,10,10,5,,0.00,0,,324
2012-10-3,78,56,35,28,23,16,60,32,12,30.23,30.16,30.10,10,10,5,23,8,31,0.00,0,,330
2012-10-4,75,56,37,30,23,16,45,27,15,30.32,30.25,30.19,10,10,5,25,8,33,0.00,0,,232
2012-10-5,73,58,42,28,23,18,46,27,15,30.24,30.17,30.10,10,10,9,23,8,31,0.00,0,,231
2012-10-6,69,55,41,36,25,10,66,37,13,30.16,30.10,30.00,10,10,7,23,11,34,0.00,1,,236
2012-10-7,59,46,33,30,23,3,75,48,23,30.20,30.15,30.09,10,10,10,13,7,17,0.00,3,,244
2012-10-8,69,44,19,21,10,0,46,26,13,30.23,30.16,30.08,10,10,10,20,6,25,0.00,0,,319
2012-10-9,71,52,32,27,20,12,48,29,15,30.22,30.16,30.10,10,10,10,22,7,29,0.00,0,,267
2012-10-10,71,52,32,30,23,12,52,33,20,30.32,30.23,30.15,10,10,10,18,6,24,0.00,0,,246
2012-10-11,73,53,33,32,26,18,56,37,20,30.27,30.23,30.18,10,10,10,14,4,20,0.00,1,,296
2012-10-12,62,52,39,48,38,27,87,63,43,30.29,30.18,30.06,10,10,8,23,5,38,0.07,6,Thunderstorm,256
2012-10-13,55,42,28,34,29,25,93,66,41,30.32,30.15,30.10,10,10,10,22,7,26,0.00,3,,278
2012-10-14,66,47,28,34,29,23,93,57,26,30.44,30.36,30.31,10,10,10,10,5,,0.00,0,,346
2012-10-15,71,50,28,32,24,16,86,45,14,30.35,30.25,30.13,10,10,10,14,5,20,0.00,0,,317
2012-10-16,73,50,28,27,20,16,69,34,14,30.16,30.05,29.93,10,10,9,21,5,28,0.07,0,,296
2012-10-17,68,52,37,28,14,-2,43,23,11,30.13,30.01,29.94,10,10,10,21,5,31,0.00,0,,278
2012-10-18,66,44,23,12,7,-6,40,24,12,30.23,30.18,30.13,10,10,8,10,4,,0.00,0,,359
2012-10-19,71,48,26,19,12,3,51,26,11,30.27,30.18,30.08,10,10,10,18,4,25,0.00,0,,305
2012-10-20,73,50,26,21,13,3,47,26,11,30.15,30.07,29.98,10,10,10,18,4,21,0.00,0,,295
2012-10-21,68,47,26,30,21,9,51,34,21,30.11,30.06,30.01,10,10,10,17,6,23,0.00,0,,286
2012-10-22,66,47,28,30,23,16,64,38,22,30.14,30.08,30.03,10,10,10,21,6,24,0.00,0,,281
2012-10-23,69,51,33,28,22,18,60,32,14,30.14,30.08,30.04,10,10,2,21,5,33,0.00,0,,224
2012-10-24,68,50,33,28,22,12,52,30,20,30.08,29.98,29.82,10,10,10,24,8,33,0.00,1,,246
2012-10-25,53,40,28,18,9,0,41,27,15,30.19,30.11,30.01,10,10,10,21,11,29,0.00,0,,238
2012-10-26,48,36,23,19,7,-9,59,33,12,30.37,30.28,30.19,10,10,10,21,9,24,0.00,1,,322
2012-10-27,57,37,17,18,10,0,74,38,14,30.28,30.20,30.10,10,10,10,20,4,24,0.00,0,,232
2012-10-28,62,42,21,19,10,0,46,30,17,30.28,30.23,30.16,10,10,10,14,5,17,0.00,0,,290
2012-10-29,66,46,26,25,16,10,55,35,18,30.36,30.29,30.21,10,10,10,13,5,,0.00,0,,354
2012-10-30,68,47,26,25,15,7,55,31,14,30.32,30.26,30.20,10,10,10,12,6,16,0.00,0,,357
2012-10-31,69,46,23,19,11,3,51,29,12,30.33,30.27,30.21,10,10,10,12,5,,0.00,0,,358